Gulf — V2BB5 — position and weather

sailwx.info

Track history (hours):
 
Tides and Currents Weather Stations Pressure Air Temp Water Temp Dewpoint Dewpoint Depression Visibility Wind Speed Wind Dir Waves Ship Positions

Gulf

Last reported at 2015-May-19 12:34 UTC. Time now 2015-May-23 05:52 UTC.
Position N 37°01' E 015°22'.

Length 96 m; draft 3.5 m.

Type: Cargo ship. MMSI: 304320000.

Date/timePositionNaut miles runAvg speedWind from/ knotsBaromVisibWave heightAir tempDewpointWater temp
2015-May-19 12:34N 37°01' E 015°22'53 8.8
2015-May-19 06:30N 36°13' E 014°55'8 8.2
2015-May-19 05:33N 36°06' E 014°50'9 8.4
2015-May-19 04:32N 35°59' E 014°43'8 8.3
2015-May-19 03:33N 35°52' E 014°38'4 1.0
2015-May-18 23:32N 35°49' E 014°35'7 7.1
2015-May-18 22:32N 35°42' E 014°37'  
2015-May-14 07:33N 32°36' E 015°17'18 8.3
2015-May-14 05:26N 32°52' E 015°24'8 8.5
2015-May-14 04:33N 32°59' E 015°27'8 8.2
2015-May-14 03:33N 33°07' E 015°30'8 8.0
2015-May-14 02:31N 33°15' E 015°33'9 7.7
2015-May-14 01:18N 33°24' E 015°37'14 7.7
2015-May-13 23:33N 33°36' E 015°43'16 8.1
2015-May-13 21:33N 33°52' E 015°50'9 8.3
2015-May-13 20:30N 33°60' E 015°53'  
Track history (hours):
 
Tides and Currents Weather Stations Pressure Air Temp Water Temp Dewpoint Dewpoint Depression Visibility Wind Speed Wind Dir Waves Ship Positions

Gulf

Last reported at 2015-May-19 12:34 UTC. Time now 2015-May-23 05:52 UTC.
Position N 37°01' E 015°22'.

Length 96 m; draft 3.5 m.

Type: Cargo ship. MMSI: 304320000.

Date/timePositionNaut miles runAvg speedWind from/ knotsBaromVisibWave heightAir tempDewpointWater temp
2015-May-19 12:34N 37°01' E 015°22'53 8.8
2015-May-19 06:30N 36°13' E 014°55'8 8.2
2015-May-19 05:33N 36°06' E 014°50'9 8.4
2015-May-19 04:32N 35°59' E 014°43'8 8.3
2015-May-19 03:33N 35°52' E 014°38'4 1.0
2015-May-18 23:32N 35°49' E 014°35'7 7.1
2015-May-18 22:32N 35°42' E 014°37'  
2015-May-14 07:33N 32°36' E 015°17'18 8.3
2015-May-14 05:26N 32°52' E 015°24'8 8.5
2015-May-14 04:33N 32°59' E 015°27'8 8.2
2015-May-14 03:33N 33°07' E 015°30'8 8.0
2015-May-14 02:31N 33°15' E 015°33'9 7.7
2015-May-14 01:18N 33°24' E 015°37'14 7.7
2015-May-13 23:33N 33°36' E 015°43'16 8.1
2015-May-13 21:33N 33°52' E 015°50'9 8.3
2015-May-13 20:30N 33°60' E 015°53'  

Dump ship's entire track history